sensor_id;sensor_type;location;lat;lon;timestamp;P1;durP1;ratioP1;P2;durP2;ratioP2
44774;SDS011;31340;51.402;0.016;2024-02-26T00:00:30;26.77;;;11.50;;
44774;SDS011;31340;51.402;0.016;2024-02-26T00:02:58;26.65;;;10.80;;
44774;SDS011;31340;51.402;0.016;2024-02-26T00:05:25;26.27;;;12.05;;
44774;SDS011;31340;51.402;0.016;2024-02-26T00:07:53;32.00;;;11.18;;
44774;SDS011;31340;51.402;0.016;2024-02-26T00:10:22;30.77;;;12.02;;
44774;SDS011;31340;51.402;0.016;2024-02-26T00:12:49;34.83;;;12.52;;
44774;SDS011;31340;51.402;0.016;2024-02-26T00:15:17;25.77;;;11.55;;
44774;SDS011;31340;51.402;0.016;2024-02-26T00:17:44;23.48;;;11.55;;
44774;SDS011;31340;51.402;0.016;2024-02-26T00:20:12;33.45;;;11.93;;
44774;SDS011;31340;51.402;0.016;2024-02-26T00:22:42;38.27;;;13.03;;
44774;SDS011;31340;51.402;0.016;2024-02-26T00:25:10;26.02;;;11.75;;
44774;SDS011;31340;51.402;0.016;2024-02-26T00:27:39;40.67;;;13.00;;
44774;SDS011;31340;51.402;0.016;2024-02-26T00:30:08;30.05;;;11.52;;
44774;SDS011;31340;51.402;0.016;2024-02-26T00:32:37;25.52;;;12.25;;
44774;SDS011;31340;51.402;0.016;2024-02-26T00:35:05;34.00;;;12.25;;
44774;SDS011;31340;51.402;0.016;2024-02-26T00:37:34;32.50;;;13.05;;
44774;SDS011;31340;51.402;0.016;2024-02-26T00:40:01;27.50;;;11.48;;
44774;SDS011;31340;51.402;0.016;2024-02-26T00:42:29;30.38;;;11.05;;
44774;SDS011;31340;51.402;0.016;2024-02-26T00:44:57;27.67;;;11.45;;
44774;SDS011;31340;51.402;0.016;2024-02-26T00:47:25;25.80;;;10.90;;
44774;SDS011;31340;51.402;0.016;2024-02-26T00:49:52;31.50;;;11.35;;
44774;SDS011;31340;51.402;0.016;2024-02-26T00:52:20;26.33;;;11.07;;
44774;SDS011;31340;51.402;0.016;2024-02-26T00:54:47;35.97;;;12.70;;
44774;SDS011;31340;51.402;0.016;2024-02-26T00:57:15;26.88;;;11.50;;
44774;SDS011;31340;51.402;0.016;2024-02-26T00:59:43;25.77;;;11.65;;
44774;SDS011;31340;51.402;0.016;2024-02-26T01:02:10;26.40;;;11.43;;
44774;SDS011;31340;51.402;0.016;2024-02-26T01:04:38;28.45;;;11.43;;
44774;SDS011;31340;51.402;0.016;2024-02-26T01:07:06;27.30;;;11.90;;
44774;SDS011;31340;51.402;0.016;2024-02-26T01:09:33;26.00;;;12.27;;
44774;SDS011;31340;51.402;0.016;2024-02-26T01:12:02;26.08;;;11.45;;
44774;SDS011;31340;51.402;0.016;2024-02-26T01:14:29;24.60;;;11.27;;
44774;SDS011;31340;51.402;0.016;2024-02-26T01:16:57;24.95;;;10.48;;
44774;SDS011;31340;51.402;0.016;2024-02-26T01:19:25;22.75;;;10.30;;
44774;SDS011;31340;51.402;0.016;2024-02-26T01:21:53;23.85;;;11.68;;
44774;SDS011;31340;51.402;0.016;2024-02-26T01:24:20;23.95;;;10.68;;
44774;SDS011;31340;51.402;0.016;2024-02-26T01:26:48;25.23;;;11.75;;
44774;SDS011;31340;51.402;0.016;2024-02-26T01:29:16;30.13;;;12.68;;
44774;SDS011;31340;51.402;0.016;2024-02-26T01:31:43;28.15;;;12.68;;
44774;SDS011;31340;51.402;0.016;2024-02-26T01:34:11;31.55;;;12.32;;
44774;SDS011;31340;51.402;0.016;2024-02-26T01:36:38;24.60;;;11.38;;
44774;SDS011;31340;51.402;0.016;2024-02-26T01:39:06;21.20;;;11.50;;
44774;SDS011;31340;51.402;0.016;2024-02-26T01:41:34;26.95;;;12.75;;
44774;SDS011;31340;51.402;0.016;2024-02-26T01:44:01;26.55;;;12.93;;
44774;SDS011;31340;51.402;0.016;2024-02-26T01:46:29;27.55;;;13.40;;
44774;SDS011;31340;51.402;0.016;2024-02-26T01:48:58;26.95;;;11.20;;
44774;SDS011;31340;51.402;0.016;2024-02-26T01:51:27;25.30;;;12.52;;
44774;SDS011;31340;51.402;0.016;2024-02-26T01:53:56;26.70;;;12.00;;
44774;SDS011;31340;51.402;0.016;2024-02-26T01:56:25;21.85;;;11.52;;
44774;SDS011;31340;51.402;0.016;2024-02-26T01:58:57;27.35;;;12.18;;
44774;SDS011;31340;51.402;0.016;2024-02-26T02:01:25;31.65;;;13.00;;
44774;SDS011;31340;51.402;0.016;2024-02-26T02:03:56;27.20;;;11.85;;
44774;SDS011;31340;51.402;0.016;2024-02-26T02:06:26;26.58;;;11.45;;
44774;SDS011;31340;51.402;0.016;2024-02-26T02:08:55;25.48;;;11.25;;
44774;SDS011;31340;51.402;0.016;2024-02-26T02:11:23;28.05;;;11.52;;
44774;SDS011;31340;51.402;0.016;2024-02-26T02:13:51;22.08;;;11.68;;
44774;SDS011;31340;51.402;0.016;2024-02-26T02:16:18;26.17;;;11.60;;
44774;SDS011;31340;51.402;0.016;2024-02-26T02:18:46;26.70;;;10.80;;
44774;SDS011;31340;51.402;0.016;2024-02-26T02:21:13;28.15;;;11.95;;
44774;SDS011;31340;51.402;0.016;2024-02-26T02:23:41;27.20;;;11.60;;
44774;SDS011;31340;51.402;0.016;2024-02-26T02:26:13;22.00;;;11.63;;
44774;SDS011;31340;51.402;0.016;2024-02-26T02:28:41;21.48;;;10.75;;
44774;SDS011;31340;51.402;0.016;2024-02-26T02:31:09;26.40;;;11.68;;
44774;SDS011;31340;51.402;0.016;2024-02-26T02:33:37;27.95;;;11.18;;
44774;SDS011;31340;51.402;0.016;2024-02-26T02:36:05;27.85;;;11.57;;
44774;SDS011;31340;51.402;0.016;2024-02-26T02:38:37;21.92;;;10.20;;
44774;SDS011;31340;51.402;0.016;2024-02-26T02:41:05;22.98;;;10.85;;
44774;SDS011;31340;51.402;0.016;2024-02-26T02:43:32;23.83;;;11.02;;
44774;SDS011;31340;51.402;0.016;2024-02-26T02:46:00;23.42;;;10.80;;
44774;SDS011;31340;51.402;0.016;2024-02-26T02:48:27;28.30;;;11.02;;
44774;SDS011;31340;51.402;0.016;2024-02-26T02:50:55;22.58;;;9.55;;
44774;SDS011;31340;51.402;0.016;2024-02-26T02:53:23;22.60;;;10.73;;
44774;SDS011;31340;51.402;0.016;2024-02-26T02:55:52;18.17;;;9.18;;
44774;SDS011;31340;51.402;0.016;2024-02-26T02:58:19;21.60;;;9.20;;
44774;SDS011;31340;51.402;0.016;2024-02-26T03:00:47;22.30;;;9.00;;
44774;SDS011;31340;51.402;0.016;2024-02-26T03:03:15;24.48;;;8.85;;
44774;SDS011;31340;51.402;0.016;2024-02-26T03:05:42;22.23;;;9.20;;
44774;SDS011;31340;51.402;0.016;2024-02-26T03:08:10;23.17;;;8.55;;
44774;SDS011;31340;51.402;0.016;2024-02-26T03:10:38;16.38;;;8.48;;
44774;SDS011;31340;51.402;0.016;2024-02-26T03:13:05;18.05;;;8.90;;
44774;SDS011;31340;51.402;0.016;2024-02-26T03:15:33;25.73;;;8.45;;
44774;SDS011;31340;51.402;0.016;2024-02-26T03:18:01;15.57;;;7.15;;
44774;SDS011;31340;51.402;0.016;2024-02-26T03:20:29;18.02;;;8.05;;
44774;SDS011;31340;51.402;0.016;2024-02-26T03:22:56;19.73;;;8.48;;
44774;SDS011;31340;51.402;0.016;2024-02-26T03:25:24;18.05;;;7.88;;
44774;SDS011;31340;51.402;0.016;2024-02-26T03:27:51;15.70;;;7.05;;
44774;SDS011;31340;51.402;0.016;2024-02-26T03:30:19;18.30;;;7.32;;
44774;SDS011;31340;51.402;0.016;2024-02-26T03:32:46;17.60;;;7.18;;
44774;SDS011;31340;51.402;0.016;2024-02-26T03:35:15;22.52;;;8.52;;
44774;SDS011;31340;51.402;0.016;2024-02-26T03:37:42;19.67;;;7.32;;
44774;SDS011;31340;51.402;0.016;2024-02-26T03:40:10;17.02;;;7.15;;
44774;SDS011;31340;51.402;0.016;2024-02-26T03:42:39;18.13;;;7.22;;
44774;SDS011;31340;51.402;0.016;2024-02-26T03:45:07;16.40;;;7.80;;
44774;SDS011;31340;51.402;0.016;2024-02-26T03:47:37;23.00;;;8.02;;
44774;SDS011;31340;51.402;0.016;2024-02-26T03:50:07;17.98;;;7.82;;
44774;SDS011;31340;51.402;0.016;2024-02-26T03:52:35;19.10;;;7.80;;
44774;SDS011;31340;51.402;0.016;2024-02-26T03:55:02;18.10;;;7.72;;
44774;SDS011;31340;51.402;0.016;2024-02-26T03:57:30;19.15;;;7.45;;
44774;SDS011;31340;51.402;0.016;2024-02-26T03:59:58;19.05;;;7.45;;
44774;SDS011;31340;51.402;0.016;2024-02-26T04:02:25;19.27;;;7.22;;
44774;SDS011;31340;51.402;0.016;2024-02-26T04:04:53;17.90;;;7.78;;
44774;SDS011;31340;51.402;0.016;2024-02-26T04:07:21;19.42;;;8.18;;
44774;SDS011;31340;51.402;0.016;2024-02-26T04:09:49;22.75;;;7.53;;
44774;SDS011;31340;51.402;0.016;2024-02-26T04:12:17;19.00;;;8.10;;
44774;SDS011;31340;51.402;0.016;2024-02-26T04:14:44;20.23;;;7.32;;
44774;SDS011;31340;51.402;0.016;2024-02-26T04:17:12;19.13;;;7.50;;
44774;SDS011;31340;51.402;0.016;2024-02-26T04:19:39;11.50;;;7.05;;
44774;SDS011;31340;51.402;0.016;2024-02-26T04:22:08;18.63;;;7.50;;
44774;SDS011;31340;51.402;0.016;2024-02-26T04:24:36;16.83;;;8.00;;
44774;SDS011;31340;51.402;0.016;2024-02-26T04:27:04;16.90;;;7.00;;
44774;SDS011;31340;51.402;0.016;2024-02-26T04:29:31;15.50;;;6.88;;
44774;SDS011;31340;51.402;0.016;2024-02-26T04:31:59;16.40;;;7.18;;
44774;SDS011;31340;51.402;0.016;2024-02-26T04:34:27;18.55;;;7.05;;
44774;SDS011;31340;51.402;0.016;2024-02-26T04:36:54;15.75;;;7.13;;
44774;SDS011;31340;51.402;0.016;2024-02-26T04:39:22;13.77;;;6.93;;
44774;SDS011;31340;51.402;0.016;2024-02-26T04:41:49;19.08;;;6.57;;
44774;SDS011;31340;51.402;0.016;2024-02-26T04:44:17;25.88;;;7.35;;
44774;SDS011;31340;51.402;0.016;2024-02-26T04:46:45;17.58;;;6.95;;
44774;SDS011;31340;51.402;0.016;2024-02-26T04:49:12;19.67;;;6.80;;
44774;SDS011;31340;51.402;0.016;2024-02-26T04:51:40;15.48;;;6.15;;
44774;SDS011;31340;51.402;0.016;2024-02-26T04:54:08;16.00;;;6.57;;
44774;SDS011;31340;51.402;0.016;2024-02-26T04:56:35;19.48;;;6.55;;
44774;SDS011;31340;51.402;0.016;2024-02-26T04:59:03;16.70;;;5.60;;
44774;SDS011;31340;51.402;0.016;2024-02-26T05:01:31;15.38;;;5.68;;
44774;SDS011;31340;51.402;0.016;2024-02-26T05:03:59;16.98;;;6.18;;
44774;SDS011;31340;51.402;0.016;2024-02-26T05:06:27;12.90;;;5.57;;
44774;SDS011;31340;51.402;0.016;2024-02-26T05:08:55;14.88;;;5.60;;
44774;SDS011;31340;51.402;0.016;2024-02-26T05:11:23;19.98;;;5.28;;
44774;SDS011;31340;51.402;0.016;2024-02-26T05:13:51;19.58;;;5.65;;
44774;SDS011;31340;51.402;0.016;2024-02-26T05:16:18;14.73;;;4.95;;
44774;SDS011;31340;51.402;0.016;2024-02-26T05:18:48;13.23;;;5.00;;
44774;SDS011;31340;51.402;0.016;2024-02-26T05:21:15;14.75;;;5.13;;
44774;SDS011;31340;51.402;0.016;2024-02-26T05:23:43;14.98;;;4.78;;
44774;SDS011;31340;51.402;0.016;2024-02-26T05:26:18;19.23;;;5.18;;
44774;SDS011;31340;51.402;0.016;2024-02-26T05:28:46;14.70;;;4.70;;
44774;SDS011;31340;51.402;0.016;2024-02-26T05:31:15;13.82;;;5.10;;
44774;SDS011;31340;51.402;0.016;2024-02-26T05:33:43;14.50;;;4.53;;
44774;SDS011;31340;51.402;0.016;2024-02-26T05:36:17;9.25;;;4.32;;
44774;SDS011;31340;51.402;0.016;2024-02-26T05:38:46;16.35;;;5.13;;
44774;SDS011;31340;51.402;0.016;2024-02-26T05:41:17;15.95;;;4.82;;
44774;SDS011;31340;51.402;0.016;2024-02-26T05:43:53;12.00;;;4.30;;
44774;SDS011;31340;51.402;0.016;2024-02-26T05:46:21;15.77;;;4.28;;
44774;SDS011;31340;51.402;0.016;2024-02-26T05:48:50;27.02;;;5.05;;
44774;SDS011;31340;51.402;0.016;2024-02-26T05:51:19;15.20;;;3.78;;
44774;SDS011;31340;51.402;0.016;2024-02-26T05:53:47;22.05;;;4.85;;
44774;SDS011;31340;51.402;0.016;2024-02-26T05:56:21;12.75;;;4.05;;
44774;SDS011;31340;51.402;0.016;2024-02-26T05:58:49;11.23;;;4.32;;
44774;SDS011;31340;51.402;0.016;2024-02-26T06:01:17;14.63;;;3.53;;
44774;SDS011;31340;51.402;0.016;2024-02-26T06:03:45;15.50;;;3.92;;
44774;SDS011;31340;51.402;0.016;2024-02-26T06:06:13;18.60;;;3.30;;
44774;SDS011;31340;51.402;0.016;2024-02-26T06:08:43;10.32;;;3.33;;
44774;SDS011;31340;51.402;0.016;2024-02-26T06:11:11;10.70;;;3.08;;
44774;SDS011;31340;51.402;0.016;2024-02-26T06:13:39;12.23;;;3.03;;
44774;SDS011;31340;51.402;0.016;2024-02-26T06:16:07;11.45;;;3.20;;
44774;SDS011;31340;51.402;0.016;2024-02-26T06:18:35;11.13;;;3.50;;
44774;SDS011;31340;51.402;0.016;2024-02-26T06:21:03;7.63;;;2.85;;
44774;SDS011;31340;51.402;0.016;2024-02-26T06:23:31;11.70;;;2.90;;
44774;SDS011;31340;51.402;0.016;2024-02-26T06:25:59;10.80;;;2.75;;
44774;SDS011;31340;51.402;0.016;2024-02-26T06:28:27;11.45;;;2.90;;
44774;SDS011;31340;51.402;0.016;2024-02-26T06:30:57;12.07;;;2.58;;
44774;SDS011;31340;51.402;0.016;2024-02-26T06:33:25;8.20;;;2.50;;
44774;SDS011;31340;51.402;0.016;2024-02-26T06:35:52;14.25;;;3.35;;
44774;SDS011;31340;51.402;0.016;2024-02-26T06:38:20;12.27;;;2.60;;
44774;SDS011;31340;51.402;0.016;2024-02-26T06:40:48;12.93;;;2.67;;
44774;SDS011;31340;51.402;0.016;2024-02-26T06:43:16;12.95;;;2.80;;
44774;SDS011;31340;51.402;0.016;2024-02-26T06:45:43;7.15;;;2.60;;
44774;SDS011;31340;51.402;0.016;2024-02-26T06:48:11;15.60;;;2.20;;
44774;SDS011;31340;51.402;0.016;2024-02-26T06:50:38;9.80;;;2.45;;
44774;SDS011;31340;51.402;0.016;2024-02-26T06:53:06;8.82;;;2.08;;
44774;SDS011;31340;51.402;0.016;2024-02-26T06:55:34;12.90;;;2.80;;
44774;SDS011;31340;51.402;0.016;2024-02-26T06:58:02;9.00;;;2.17;;
44774;SDS011;31340;51.402;0.016;2024-02-26T07:00:29;5.40;;;2.28;;
44774;SDS011;31340;51.402;0.016;2024-02-26T07:02:57;7.38;;;1.75;;
44774;SDS011;31340;51.402;0.016;2024-02-26T07:05:25;11.35;;;2.50;;
44774;SDS011;31340;51.402;0.016;2024-02-26T07:07:55;8.82;;;2.47;;
44774;SDS011;31340;51.402;0.016;2024-02-26T07:10:23;9.20;;;2.20;;
44774;SDS011;31340;51.402;0.016;2024-02-26T07:12:52;7.15;;;1.73;;
44774;SDS011;31340;51.402;0.016;2024-02-26T07:15:20;6.10;;;1.75;;
44774;SDS011;31340;51.402;0.016;2024-02-26T07:17:48;9.43;;;2.30;;
44774;SDS011;31340;51.402;0.016;2024-02-26T07:20:16;6.93;;;2.03;;
44774;SDS011;31340;51.402;0.016;2024-02-26T07:22:45;10.45;;;2.80;;
44774;SDS011;31340;51.402;0.016;2024-02-26T07:25:13;12.50;;;1.75;;
44774;SDS011;31340;51.402;0.016;2024-02-26T07:27:41;5.93;;;1.80;;
44774;SDS011;31340;51.402;0.016;2024-02-26T07:30:08;8.48;;;1.92;;
44774;SDS011;31340;51.402;0.016;2024-02-26T07:32:37;14.07;;;1.92;;
44774;SDS011;31340;51.402;0.016;2024-02-26T07:35:05;9.63;;;2.45;;
44774;SDS011;31340;51.402;0.016;2024-02-26T07:37:33;8.23;;;1.80;;
44774;SDS011;31340;51.402;0.016;2024-02-26T07:40:01;11.77;;;1.60;;
44774;SDS011;31340;51.402;0.016;2024-02-26T07:42:30;12.70;;;2.38;;
44774;SDS011;31340;51.402;0.016;2024-02-26T07:44:58;9.65;;;2.28;;
44774;SDS011;31340;51.402;0.016;2024-02-26T07:47:26;5.30;;;1.38;;
44774;SDS011;31340;51.402;0.016;2024-02-26T07:49:53;8.35;;;1.90;;
44774;SDS011;31340;51.402;0.016;2024-02-26T07:52:21;10.07;;;2.67;;
44774;SDS011;31340;51.402;0.016;2024-02-26T07:54:49;13.05;;;2.47;;
44774;SDS011;31340;51.402;0.016;2024-02-26T07:57:16;10.85;;;1.98;;
44774;SDS011;31340;51.402;0.016;2024-02-26T07:59:44;15.70;;;2.05;;
44774;SDS011;31340;51.402;0.016;2024-02-26T08:02:16;8.35;;;1.80;;
44774;SDS011;31340;51.402;0.016;2024-02-26T08:04:44;9.00;;;1.73;;
44774;SDS011;31340;51.402;0.016;2024-02-26T08:07:12;10.25;;;2.35;;
44774;SDS011;31340;51.402;0.016;2024-02-26T08:09:40;7.03;;;2.17;;
44774;SDS011;31340;51.402;0.016;2024-02-26T08:12:07;7.63;;;1.83;;
44774;SDS011;31340;51.402;0.016;2024-02-26T08:14:35;11.77;;;1.75;;
44774;SDS011;31340;51.402;0.016;2024-02-26T08:17:03;10.02;;;1.42;;
44774;SDS011;31340;51.402;0.016;2024-02-26T08:19:31;6.60;;;1.70;;
44774;SDS011;31340;51.402;0.016;2024-02-26T08:21:59;9.45;;;1.70;;
44774;SDS011;31340;51.402;0.016;2024-02-26T08:24:31;7.88;;;1.73;;
44774;SDS011;31340;51.402;0.016;2024-02-26T08:26:58;5.22;;;1.50;;
44774;SDS011;31340;51.402;0.016;2024-02-26T08:29:26;7.78;;;1.50;;
44774;SDS011;31340;51.402;0.016;2024-02-26T08:31:53;6.05;;;1.50;;
44774;SDS011;31340;51.402;0.016;2024-02-26T08:34:21;7.35;;;1.50;;
44774;SDS011;31340;51.402;0.016;2024-02-26T08:36:49;10.57;;;1.48;;
44774;SDS011;31340;51.402;0.016;2024-02-26T08:39:17;7.60;;;1.60;;
44774;SDS011;31340;51.402;0.016;2024-02-26T08:41:45;9.23;;;2.20;;
44774;SDS011;31340;51.402;0.016;2024-02-26T08:44:13;5.95;;;2.35;;
44774;SDS011;31340;51.402;0.016;2024-02-26T08:46:40;8.40;;;1.80;;
44774;SDS011;31340;51.402;0.016;2024-02-26T08:49:08;6.03;;;1.20;;
44774;SDS011;31340;51.402;0.016;2024-02-26T08:51:46;7.85;;;1.55;;
44774;SDS011;31340;51.402;0.016;2024-02-26T08:54:13;9.50;;;2.08;;
44774;SDS011;31340;51.402;0.016;2024-02-26T08:56:41;7.45;;;1.40;;
44774;SDS011;31340;51.402;0.016;2024-02-26T08:59:09;4.35;;;1.05;;
44774;SDS011;31340;51.402;0.016;2024-02-26T09:01:37;6.72;;;1.60;;
44774;SDS011;31340;51.402;0.016;2024-02-26T09:04:04;8.77;;;2.08;;
44774;SDS011;31340;51.402;0.016;2024-02-26T09:06:32;5.38;;;1.33;;
44774;SDS011;31340;51.402;0.016;2024-02-26T09:09:00;5.93;;;1.55;;
44774;SDS011;31340;51.402;0.016;2024-02-26T09:11:28;4.70;;;1.58;;
44774;SDS011;31340;51.402;0.016;2024-02-26T09:13:56;7.22;;;1.83;;
44774;SDS011;31340;51.402;0.016;2024-02-26T09:16:24;14.73;;;2.38;;
44774;SDS011;31340;51.402;0.016;2024-02-26T09:18:51;11.90;;;1.75;;
44774;SDS011;31340;51.402;0.016;2024-02-26T09:21:19;10.02;;;2.25;;
44774;SDS011;31340;51.402;0.016;2024-02-26T09:23:50;7.28;;;2.05;;
44774;SDS011;31340;51.402;0.016;2024-02-26T09:26:18;7.28;;;1.88;;
44774;SDS011;31340;51.402;0.016;2024-02-26T09:28:46;6.97;;;1.63;;
44774;SDS011;31340;51.402;0.016;2024-02-26T09:31:14;6.03;;;1.48;;
44774;SDS011;31340;51.402;0.016;2024-02-26T09:33:44;7.90;;;1.95;;
44774;SDS011;31340;51.402;0.016;2024-02-26T09:36:12;7.35;;;1.70;;
44774;SDS011;31340;51.402;0.016;2024-02-26T09:38:41;10.93;;;2.05;;
44774;SDS011;31340;51.402;0.016;2024-02-26T09:41:22;9.75;;;1.70;;
44774;SDS011;31340;51.402;0.016;2024-02-26T09:43:50;10.82;;;1.42;;
44774;SDS011;31340;51.402;0.016;2024-02-26T09:46:21;9.68;;;1.65;;
44774;SDS011;31340;51.402;0.016;2024-02-26T09:48:49;9.73;;;2.47;;
44774;SDS011;31340;51.402;0.016;2024-02-26T09:51:17;4.75;;;1.40;;
44774;SDS011;31340;51.402;0.016;2024-02-26T09:53:46;6.97;;;2.25;;
44774;SDS011;31340;51.402;0.016;2024-02-26T09:56:16;6.55;;;1.58;;
44774;SDS011;31340;51.402;0.016;2024-02-26T09:58:44;10.20;;;1.70;;
44774;SDS011;31340;51.402;0.016;2024-02-26T10:01:16;9.13;;;1.63;;
44774;SDS011;31340;51.402;0.016;2024-02-26T10:03:46;7.30;;;1.60;;
44774;SDS011;31340;51.402;0.016;2024-02-26T10:06:18;10.02;;;1.40;;
44774;SDS011;31340;51.402;0.016;2024-02-26T10:08:46;4.78;;;1.60;;
44774;SDS011;31340;51.402;0.016;2024-02-26T10:11:15;9.02;;;1.60;;
44774;SDS011;31340;51.402;0.016;2024-02-26T10:13:43;15.90;;;2.10;;
44774;SDS011;31340;51.402;0.016;2024-02-26T10:16:11;8.45;;;1.85;;
44774;SDS011;31340;51.402;0.016;2024-02-26T10:18:45;6.80;;;1.58;;
44774;SDS011;31340;51.402;0.016;2024-02-26T10:21:26;6.18;;;1.40;;
44774;SDS011;31340;51.402;0.016;2024-02-26T10:23:54;5.72;;;1.30;;
44774;SDS011;31340;51.402;0.016;2024-02-26T10:26:22;6.60;;;1.30;;
44774;SDS011;31340;51.402;0.016;2024-02-26T10:28:49;7.20;;;1.02;;
44774;SDS011;31340;51.402;0.016;2024-02-26T10:31:21;6.63;;;1.40;;
44774;SDS011;31340;51.402;0.016;2024-02-26T10:33:49;11.63;;;1.75;;
44774;SDS011;31340;51.402;0.016;2024-02-26T10:36:18;6.57;;;1.30;;
44774;SDS011;31340;51.402;0.016;2024-02-26T10:38:45;18.00;;;2.05;;
44774;SDS011;31340;51.402;0.016;2024-02-26T10:41:13;8.15;;;1.23;;
44774;SDS011;31340;51.402;0.016;2024-02-26T10:43:42;7.10;;;1.40;;
44774;SDS011;31340;51.402;0.016;2024-02-26T10:46:11;6.80;;;1.73;;
44774;SDS011;31340;51.402;0.016;2024-02-26T10:48:39;6.65;;;1.50;;
44774;SDS011;31340;51.402;0.016;2024-02-26T10:51:08;6.35;;;1.58;;
44774;SDS011;31340;51.402;0.016;2024-02-26T10:53:39;3.60;;;1.27;;
44774;SDS011;31340;51.402;0.016;2024-02-26T10:56:10;4.70;;;0.93;;
44774;SDS011;31340;51.402;0.016;2024-02-26T10:58:38;6.75;;;1.10;;
44774;SDS011;31340;51.402;0.016;2024-02-26T11:01:06;4.97;;;1.00;;
44774;SDS011;31340;51.402;0.016;2024-02-26T11:03:36;8.90;;;1.63;;
44774;SDS011;31340;51.402;0.016;2024-02-26T11:06:04;8.07;;;1.15;;
44774;SDS011;31340;51.402;0.016;2024-02-26T11:08:32;4.75;;;1.50;;
44774;SDS011;31340;51.402;0.016;2024-02-26T11:11:00;7.28;;;1.23;;
44774;SDS011;31340;51.402;0.016;2024-02-26T11:13:28;3.35;;;1.50;;
44774;SDS011;31340;51.402;0.016;2024-02-26T11:16:02;5.10;;;1.10;;
44774;SDS011;31340;51.402;0.016;2024-02-26T11:18:30;5.15;;;1.75;;
44774;SDS011;31340;51.402;0.016;2024-02-26T11:20:58;6.35;;;1.52;;
44774;SDS011;31340;51.402;0.016;2024-02-26T11:23:28;5.35;;;1.40;;
44774;SDS011;31340;51.402;0.016;2024-02-26T11:25:56;13.45;;;1.50;;
44774;SDS011;31340;51.402;0.016;2024-02-26T11:28:27;7.82;;;1.77;;
44774;SDS011;31340;51.402;0.016;2024-02-26T11:30:55;11.93;;;1.60;;
44774;SDS011;31340;51.402;0.016;2024-02-26T11:33:26;8.45;;;1.23;;
44774;SDS011;31340;51.402;0.016;2024-02-26T11:35:55;2.95;;;1.27;;
44774;SDS011;31340;51.402;0.016;2024-02-26T11:38:24;4.25;;;1.40;;
44774;SDS011;31340;51.402;0.016;2024-02-26T11:40:53;5.38;;;1.90;;
44774;SDS011;31340;51.402;0.016;2024-02-26T11:43:49;4.10;;;1.08;;
44774;SDS011;31340;51.402;0.016;2024-02-26T11:46:25;3.63;;;1.05;;
44774;SDS011;31340;51.402;0.016;2024-02-26T11:48:57;7.85;;;2.10;;
44774;SDS011;31340;51.402;0.016;2024-02-26T11:51:45;4.65;;;1.17;;
44774;SDS011;31340;51.402;0.016;2024-02-26T11:59:56;12.35;;;1.77;;
44774;SDS011;31340;51.402;0.016;2024-02-26T12:05:22;6.43;;;1.58;;
44774;SDS011;31340;51.402;0.016;2024-02-26T12:07:55;3.97;;;0.95;;
44774;SDS011;31340;51.402;0.016;2024-02-26T12:10:38;7.47;;;1.27;;
44774;SDS011;31340;51.402;0.016;2024-02-26T12:13:11;7.47;;;1.60;;
44774;SDS011;31340;51.402;0.016;2024-02-26T12:15:55;10.30;;;1.35;;
44774;SDS011;31340;51.402;0.016;2024-02-26T12:18:26;7.38;;;1.27;;
44774;SDS011;31340;51.402;0.016;2024-02-26T12:20:58;9.52;;;1.40;;
44774;SDS011;31340;51.402;0.016;2024-02-26T12:23:28;20.67;;;2.85;;
44774;SDS011;31340;51.402;0.016;2024-02-26T12:26:01;6.05;;;1.48;;
44774;SDS011;31340;51.402;0.016;2024-02-26T12:28:33;5.50;;;1.08;;
44774;SDS011;31340;51.402;0.016;2024-02-26T12:31:01;4.10;;;1.00;;
44774;SDS011;31340;51.402;0.016;2024-02-26T12:33:29;3.92;;;1.00;;
44774;SDS011;31340;51.402;0.016;2024-02-26T12:35:58;2.17;;;0.77;;
44774;SDS011;31340;51.402;0.016;2024-02-26T12:38:26;8.18;;;1.23;;
44774;SDS011;31340;51.402;0.016;2024-02-26T12:40:55;6.72;;;0.95;;
44774;SDS011;31340;51.402;0.016;2024-02-26T12:43:22;5.95;;;1.13;;
44774;SDS011;31340;51.402;0.016;2024-02-26T12:45:52;9.05;;;1.65;;
44774;SDS011;31340;51.402;0.016;2024-02-26T12:48:19;10.43;;;2.20;;
44774;SDS011;31340;51.402;0.016;2024-02-26T12:50:47;6.90;;;1.30;;
44774;SDS011;31340;51.402;0.016;2024-02-26T12:53:15;7.22;;;1.10;;
44774;SDS011;31340;51.402;0.016;2024-02-26T12:55:43;13.35;;;2.40;;
44774;SDS011;31340;51.402;0.016;2024-02-26T12:58:11;3.78;;;1.35;;
44774;SDS011;31340;51.402;0.016;2024-02-26T13:00:41;5.78;;;1.05;;
44774;SDS011;31340;51.402;0.016;2024-02-26T13:03:09;8.25;;;1.50;;
44774;SDS011;31340;51.402;0.016;2024-02-26T13:05:37;5.93;;;1.30;;
44774;SDS011;31340;51.402;0.016;2024-02-26T13:08:05;6.25;;;1.42;;
44774;SDS011;31340;51.402;0.016;2024-02-26T13:13:04;8.38;;;2.40;;
44774;SDS011;31340;51.402;0.016;2024-02-26T13:15:32;6.97;;;1.70;;
44774;SDS011;31340;51.402;0.016;2024-02-26T13:18:00;5.88;;;1.63;;
44774;SDS011;31340;51.402;0.016;2024-02-26T13:20:40;4.28;;;1.75;;
44774;SDS011;31340;51.402;0.016;2024-02-26T13:23:11;4.88;;;1.60;;
44774;SDS011;31340;51.402;0.016;2024-02-26T13:25:40;5.50;;;1.48;;
44774;SDS011;31340;51.402;0.016;2024-02-26T13:30:54;6.57;;;2.10;;
44774;SDS011;31340;51.402;0.016;2024-02-26T13:33:28;5.32;;;1.45;;
44774;SDS011;31340;51.402;0.016;2024-02-26T13:35:57;5.97;;;1.50;;
44774;SDS011;31340;51.402;0.016;2024-02-26T13:38:26;6.82;;;1.63;;
44774;SDS011;31340;51.402;0.016;2024-02-26T13:40:55;5.15;;;1.30;;
44774;SDS011;31340;51.402;0.016;2024-02-26T13:43:23;7.85;;;1.70;;
44774;SDS011;31340;51.402;0.016;2024-02-26T13:45:50;6.03;;;1.55;;
44774;SDS011;31340;51.402;0.016;2024-02-26T13:48:18;5.50;;;1.10;;
44774;SDS011;31340;51.402;0.016;2024-02-26T13:50:46;5.32;;;1.40;;
44774;SDS011;31340;51.402;0.016;2024-02-26T13:53:14;4.30;;;1.40;;
44774;SDS011;31340;51.402;0.016;2024-02-26T13:55:42;4.55;;;0.93;;
44774;SDS011;31340;51.402;0.016;2024-02-26T13:58:11;4.72;;;1.33;;
44774;SDS011;31340;51.402;0.016;2024-02-26T14:00:42;2.95;;;0.95;;
44774;SDS011;31340;51.402;0.016;2024-02-26T14:03:11;4.88;;;1.50;;
44774;SDS011;31340;51.402;0.016;2024-02-26T14:05:38;5.85;;;1.38;;
44774;SDS011;31340;51.402;0.016;2024-02-26T14:08:07;6.95;;;1.20;;
44774;SDS011;31340;51.402;0.016;2024-02-26T14:10:35;6.50;;;1.25;;
44774;SDS011;31340;51.402;0.016;2024-02-26T14:13:04;9.73;;;1.45;;
44774;SDS011;31340;51.402;0.016;2024-02-26T14:15:34;4.30;;;1.38;;
44774;SDS011;31340;51.402;0.016;2024-02-26T14:18:02;7.75;;;1.83;;
44774;SDS011;31340;51.402;0.016;2024-02-26T14:20:31;6.10;;;1.33;;
44774;SDS011;31340;51.402;0.016;2024-02-26T14:22:58;2.97;;;1.63;;
44774;SDS011;31340;51.402;0.016;2024-02-26T14:25:27;18.20;;;3.97;;
44774;SDS011;31340;51.402;0.016;2024-02-26T14:27:57;10.60;;;2.00;;
44774;SDS011;31340;51.402;0.016;2024-02-26T14:30:26;8.63;;;1.73;;
44774;SDS011;31340;51.402;0.016;2024-02-26T14:32:54;7.93;;;4.20;;
44774;SDS011;31340;51.402;0.016;2024-02-26T14:35:22;10.10;;;3.63;;
44774;SDS011;31340;51.402;0.016;2024-02-26T14:37:50;7.13;;;2.17;;
44774;SDS011;31340;51.402;0.016;2024-02-26T14:40:19;8.82;;;2.28;;
44774;SDS011;31340;51.402;0.016;2024-02-26T14:42:47;8.30;;;1.70;;
44774;SDS011;31340;51.402;0.016;2024-02-26T14:45:14;11.82;;;3.00;;
44774;SDS011;31340;51.402;0.016;2024-02-26T14:47:43;4.85;;;1.02;;
44774;SDS011;31340;51.402;0.016;2024-02-26T14:50:11;5.72;;;1.13;;
44774;SDS011;31340;51.402;0.016;2024-02-26T14:52:39;4.03;;;1.00;;
44774;SDS011;31340;51.402;0.016;2024-02-26T14:55:07;7.43;;;1.40;;
44774;SDS011;31340;51.402;0.016;2024-02-26T14:57:34;13.13;;;1.63;;
44774;SDS011;31340;51.402;0.016;2024-02-26T15:00:02;4.60;;;1.42;;